Portada
METAR-TAF:

METAR-TAF

Aeropuertos :

Touggourt, Argelia

latitud: 33-07N, longitud: 006-08E, altitud: 85 m

Observación

El informe se hizo hace 39 minutos, a las 11:00 UTC
Viento 6 kt del suroeste
Temperatura 35°C
Humedad 25%
Presión 1005 hPa
Visibilidad: 7000 m

METAR: DAUK 191100Z 23006KT 7000 NSC 35/12 Q1005

Hora: 12:39 (11:39 UTC)

Pronóstico

El informe se hizo hace 3 horas y 39 minutos, a las 08:00 UTC
Pronóstico válido del 19 a las 09 UTC al 19 a las 18 UTC
Viento 12 kt del suroeste
Visibilidad: 7000 m
Probabilidad 40%
del 19 a las 12 UTC al 19 a las 17 UTC
Viento 22 kt del oeste-suroeste
Visibilidad: 3000 m
Ventisca baja de arena,

TAF: DAUK 190800Z 1909/1918 22012KT 7000 NSC PROB40 1912/1917 24022KT 3000 DRSA

Observaciones y pronósticos meteorológicos de más de 4000 aeropuertos (mensajes METAR y TAF).

Los puntos amarillos y rojos representan las estaciones disponibles.

Ponga el ratón en el punto deseado para ver el nombre de la estación.

Haga clic para ver las observaciones y los pronósticos meteorológicos.

Para cambiar el mapa : haga clic en los botones verdes con una cruz de color negro para hacer un zoom, en el botón verde con un guión para alejar o en las flechas verdes para mapas adyacentes.


METAR-TAF: